Hlavní strana
METAR-TAF:

METAR-TAF

Letiště :

Resolute, Nunavut, Kanada

zeměpisná šířka: 74-43N, zeměpisná délka: 094-59W, výška: 67 m

Aktuální stav počasí

Zpráva byla vytvořena před 15 minutami, v 11:00 UTC
Severoseverozápadní vítr 7 kt
Teplota -40°C
Vlhkost vzduchu 65%
Tlak 1015 hPa
Viditelnost: 4.8 km
Jasno
ledové krystalky, kouřmo

METAR: CYRB 241100Z 33007KT 3SM IC BR SKC M40/M44 A2997 RMK SLP167

Čas: 05:15 (11:15 UTC)

Předpověď počasí

Zpráva byla vytvořena před 5 hodinami a 37 minutami, v 05:38 UTC
Předpověď platná od 24 v 06 UTC do 25 v 06 UTC
Severoseverozápadní vítr 10 kt
Viditelnost: 10 km
Skoro jasno ve výšce 6000 ft

TAF: CYRB 240538Z 2406/2506 34010KT P6SM FEW060 RMK NXT FCST BY 241200Z

Stav a předpovědi počasí z více než 4 000 letišť (zprávy METAR a TAF).

Červené a žluté tečky na mapě představují dostupné meteorologické stanice.

Když kurzor umístíte na tečku, zobrazí se název stanice.

Pak kliknutím zobrazíte stav a předpověď počasí.

Chcete-li změnit mapu, kliknutím na zelené tlačítko se znaménkem +mapu přiblížíte, kliknutím na zelené tlačítko se znaménkem – mapu oddálíte a kliknutím na zelené šipky přejdete na sousední mapy.


METAR-TAF: